Time;durP1;ratioP1;P1;durP2;ratioP2;P2;SDS_P1;SDS_P2;PMS_P1;PMS_P2;Temp;Humidity;BMP_temperature;BMP_pressure;BME280_temperature;BME280_humidity;BME280_pressure;Samples;Min_cycle;Max_cycle;Signal;HPM_P1;HPM_P2
2023/11/10 00:01:26;;;;;;;37.25;34.95;;;;;;;;;;4998390;28;25074;-73
2023/11/10 00:03:52;;;;;;;39.17;36.78;;;;;;;;;;4993860;28;25054;-72
2023/11/10 00:06:18;;;;;;;36.78;34.40;;;;;;;;;;4989128;28;25055;-74
2023/11/10 00:08:44;;;;;;;29.88;27.98;;;;;;;;;;4993841;28;25104;-73
2023/11/10 00:11:10;;;;;;;30.27;28.35;;;;;;;;;;4997882;28;25073;-72
2023/11/10 00:13:36;;;;;;;26.33;24.50;;;;;;;;;;4986663;28;25066;-71
2023/11/10 00:16:02;;;;;;;27.38;25.45;;;;;;;;;;4994388;28;25135;-71
2023/11/10 00:18:28;;;;;;;29.45;27.75;;;;;;;;;;4991105;28;25056;-71
2023/11/10 00:20:54;;;;;;;27.02;25.02;;;;;;;;;;4994614;28;25040;-72
2023/11/10 00:23:20;;;;;;;32.05;30.08;;;;;;;;;;4995649;28;25055;-74
2023/11/10 00:25:46;;;;;;;25.80;24.15;;;;;;;;;;4991081;28;25107;-72
2023/11/10 00:28:12;;;;;;;30.52;28.67;;;;;;;;;;4990285;28;25091;-72
2023/11/10 00:30:39;;;;;;;27.02;25.17;;;;;;;;;;4995132;28;25063;-73
2023/11/10 00:33:05;;;;;;;29.70;27.83;;;;;;;;;;4988178;28;25061;-72
2023/11/10 00:35:31;;;;;;;29.25;27.45;;;;;;;;;;4990502;28;25070;-76
2023/11/10 00:37:57;;;;;;;27.35;25.85;;;;;;;;;;4988658;28;25140;-72
2023/11/10 00:40:23;;;;;;;28.58;26.67;;;;;;;;;;4993011;28;25066;-75
2023/11/10 00:42:49;;;;;;;38.70;36.15;;;;;;;;;;4993294;28;25061;-73
2023/11/10 00:45:15;;;;;;;33.03;31.05;;;;;;;;;;4996667;28;25076;-73
2023/11/10 00:47:41;;;;;;;34.88;32.60;;;;;;;;;;4993980;28;25063;-74
2023/11/10 00:50:07;;;;;;;35.30;33.10;;;;;;;;;;4998035;28;25090;-73
2023/11/10 00:52:33;;;;;;;33.03;30.85;;;;;;;;;;4999800;28;25041;-73
2023/11/10 00:54:59;;;;;;;38.85;36.13;;;;;;;;;;5003000;28;25106;-73
2023/11/10 00:57:25;;;;;;;34.70;32.67;;;;;;;;;;4996804;28;25085;-73
2023/11/10 00:59:51;;;;;;;39.75;37.30;;;;;;;;;;4994072;28;25057;-72
2023/11/10 01:02:17;;;;;;;39.40;37.13;;;;;;;;;;4987070;28;25156;-72
2023/11/10 01:04:43;;;;;;;43.40;40.60;;;;;;;;;;4991245;28;25136;-73
2023/11/10 01:07:09;;;;;;;45.78;42.88;;;;;;;;;;4995170;28;25137;-72
2023/11/10 01:09:35;;;;;;;50.03;47.00;;;;;;;;;;4992644;28;25060;-72
2023/11/10 01:12:01;;;;;;;49.17;46.17;;;;;;;;;;4993703;28;25060;-72
2023/11/10 01:14:27;;;;;;;49.67;46.70;;;;;;;;;;4994796;28;25079;-70
2023/11/10 01:16:53;;;;;;;58.70;55.10;;;;;;;;;;4991519;28;25151;-72
2023/11/10 01:19:19;;;;;;;58.22;54.50;;;;;;;;;;4993607;28;25112;-73
2023/11/10 01:21:46;;;;;;;65.45;61.00;;;;;;;;;;4995663;28;25074;-72
2023/11/10 01:24:12;;;;;;;60.80;57.00;;;;;;;;;;4987624;28;25076;-70
2023/11/10 01:26:38;;;;;;;68.55;63.95;;;;;;;;;;4982461;28;25080;-73
2023/11/10 01:29:05;;;;;;;59.47;55.58;;;;;;;;;;4992131;28;25155;-72
2023/11/10 01:31:31;;;;;;;71.15;66.47;;;;;;;;;;4974172;28;25148;-72
2023/11/10 01:33:57;;;;;;;60.42;56.60;;;;;;;;;;4995609;28;25092;-73
2023/11/10 01:36:23;;;;;;;53.20;49.97;;;;;;;;;;4981475;28;25123;-74
2023/11/10 01:38:49;;;;;;;62.15;58.00;;;;;;;;;;4994717;28;25072;-72
2023/11/10 01:41:15;;;;;;;62.38;58.17;;;;;;;;;;4983905;28;25146;-69
2023/11/10 01:43:41;;;;;;;70.78;66.32;;;;;;;;;;4992493;28;25074;-73
2023/11/10 01:46:19;;;;;;;69.63;64.63;;;;;;;;;;5000685;28;25066;-71
2023/11/10 01:48:45;;;;;;;71.72;67.07;;;;;;;;;;5003322;28;25064;-70
2023/11/10 01:51:11;;;;;;;68.82;64.30;;;;;;;;;;4992657;28;25131;-71
2023/11/10 01:53:37;;;;;;;66.93;62.72;;;;;;;;;;4996347;28;25049;-72
2023/11/10 01:56:04;;;;;;;64.78;60.70;;;;;;;;;;4995205;28;25129;-72
2023/11/10 01:58:30;;;;;;;64.68;60.70;;;;;;;;;;4992615;28;25061;-72
2023/11/10 02:00:56;;;;;;;62.40;58.40;;;;;;;;;;4988407;28;25098;-72
2023/11/10 02:03:23;;;;;;;52.95;49.47;;;;;;;;;;5017743;28;25051;-71
2023/11/10 02:05:49;;;;;;;54.83;51.38;;;;;;;;;;5012690;28;25058;-71
2023/11/10 02:08:15;;;;;;;51.20;48.00;;;;;;;;;;5004989;28;25050;-72
2023/11/10 02:10:41;;;;;;;55.83;51.97;;;;;;;;;;4998399;28;25062;-74
2023/11/10 02:13:07;;;;;;;50.50;47.40;;;;;;;;;;5007815;28;25076;-72
2023/11/10 02:15:33;;;;;;;55.50;51.95;;;;;;;;;;5002000;28;25143;-71
2023/11/10 02:18:00;;;;;;;47.78;44.78;;;;;;;;;;5004797;28;25063;-72
2023/11/10 02:20:26;;;;;;;53.53;50.03;;;;;;;;;;4995312;28;25045;-71
2023/11/10 02:22:52;;;;;;;52.72;49.53;;;;;;;;;;4983622;28;25100;-70
2023/11/10 02:25:21;;;;;;;66.88;62.45;;;;;;;;;;4993277;28;25068;-72
2023/11/10 02:27:47;;;;;;;66.93;62.35;;;;;;;;;;4996660;28;25070;-72
2023/11/10 02:30:13;;;;;;;68.97;64.38;;;;;;;;;;4995350;28;25060;-72
2023/11/10 02:32:42;;;;;;;68.40;63.80;;;;;;;;;;4992970;28;25067;-72
2023/11/10 02:35:08;;;;;;;61.95;57.97;;;;;;;;;;5001521;28;25078;-73
2023/11/10 02:37:35;;;;;;;65.10;60.67;;;;;;;;;;4997607;28;25145;-72
2023/11/10 02:40:01;;;;;;;62.10;58.03;;;;;;;;;;4995527;28;25065;-73
2023/11/10 02:42:27;;;;;;;64.70;60.00;;;;;;;;;;4995911;28;25145;-74
2023/11/10 02:44:53;;;;;;;66.55;61.95;;;;;;;;;;4987666;28;25172;-72
2023/11/10 02:47:19;;;;;;;69.72;65.00;;;;;;;;;;4982818;28;25054;-73
2023/11/10 02:49:45;;;;;;;69.13;64.47;;;;;;;;;;4991901;28;25083;-74
2023/11/10 02:52:11;;;;;;;69.50;64.60;;;;;;;;;;4995663;28;25103;-72
2023/11/10 02:54:37;;;;;;;78.07;72.78;;;;;;;;;;4993966;28;25075;-73
2023/11/10 02:57:03;;;;;;;79.10;73.43;;;;;;;;;;4985413;28;25143;-71
2023/11/10 02:59:29;;;;;;;78.13;72.57;;;;;;;;;;4998018;28;25057;-73
2023/11/10 03:01:55;;;;;;;69.93;65.15;;;;;;;;;;4996341;28;25109;-73
2023/11/10 03:04:21;;;;;;;70.70;65.60;;;;;;;;;;5009755;28;25070;-72
2023/11/10 03:06:48;;;;;;;76.25;70.68;;;;;;;;;;5007185;28;25075;-74
2023/11/10 03:09:14;;;;;;;78.80;73.13;;;;;;;;;;5001048;28;25158;-71
2023/11/10 03:11:40;;;;;;;74.57;69.57;;;;;;;;;;5009525;28;25128;-72
2023/11/10 03:14:06;;;;;;;77.47;72.07;;;;;;;;;;5005578;28;25066;-72
2023/11/10 03:16:32;;;;;;;70.07;65.30;;;;;;;;;;5005925;28;25082;-73
2023/11/10 03:18:58;;;;;;;66.07;61.72;;;;;;;;;;5005722;28;25112;-74
2023/11/10 03:21:27;;;;;;;77.72;72.32;;;;;;;;;;5006446;28;25057;-75
2023/11/10 03:23:53;;;;;;;74.55;69.22;;;;;;;;;;5001066;28;25074;-73
2023/11/10 03:26:19;;;;;;;72.97;68.07;;;;;;;;;;5002849;28;25072;-73
2023/11/10 03:28:45;;;;;;;71.40;66.68;;;;;;;;;;5005700;28;25145;-73
2023/11/10 03:31:11;;;;;;;76.65;71.40;;;;;;;;;;4990584;28;25106;-73
2023/11/10 03:33:37;;;;;;;81.00;75.30;;;;;;;;;;4994571;28;25136;-73
2023/11/10 03:36:03;;;;;;;86.85;80.50;;;;;;;;;;4991024;28;25082;-74
2023/11/10 03:38:29;;;;;;;83.15;76.85;;;;;;;;;;4994864;28;25169;-73
2023/11/10 03:40:55;;;;;;;80.93;75.05;;;;;;;;;;4993053;28;25074;-72
2023/11/10 03:43:21;;;;;;;78.57;72.63;;;;;;;;;;4987909;28;25060;-72
2023/11/10 03:45:47;;;;;;;82.15;76.28;;;;;;;;;;4988810;28;25141;-74
2023/11/10 03:48:13;;;;;;;80.35;74.68;;;;;;;;;;4998235;28;25059;-72
2023/11/10 03:50:40;;;;;;;78.88;73.40;;;;;;;;;;4997123;28;25053;-74
2023/11/10 03:53:07;;;;;;;80.63;75.10;;;;;;;;;;4991930;28;25103;-71
2023/11/10 03:55:33;;;;;;;76.55;71.35;;;;;;;;;;4995440;28;25085;-74
2023/11/10 03:57:59;;;;;;;78.47;73.07;;;;;;;;;;4998235;28;25073;-72
2023/11/10 04:00:25;;;;;;;85.22;78.82;;;;;;;;;;4994320;28;25163;-72
2023/11/10 04:02:51;;;;;;;87.35;80.72;;;;;;;;;;4998431;28;25070;-72
2023/11/10 04:05:16;;;;;;;91.15;84.32;;;;;;;;;;4989801;28;25080;-72
2023/11/10 04:07:42;;;;;;;93.40;86.35;;;;;;;;;;4997665;28;25106;-71
2023/11/10 04:10:10;;;;;;;90.10;83.55;;;;;;;;;;4986295;28;25066;-73
2023/11/10 04:12:36;;;;;;;89.63;82.95;;;;;;;;;;4989544;28;25151;-73
2023/11/10 04:15:03;;;;;;;86.63;79.85;;;;;;;;;;4992878;28;25066;-72
2023/11/10 04:17:29;;;;;;;93.82;86.90;;;;;;;;;;4991408;28;25047;-72
2023/11/10 04:19:55;;;;;;;92.93;85.97;;;;;;;;;;4989651;28;25086;-73
2023/11/10 04:22:21;;;;;;;93.25;86.07;;;;;;;;;;4986280;28;25077;-75
2023/11/10 04:24:47;;;;;;;92.63;85.72;;;;;;;;;;5002845;28;25144;-74
2023/11/10 04:27:12;;;;;;;88.88;82.55;;;;;;;;;;5003279;28;25090;-72
2023/11/10 04:29:39;;;;;;;87.00;80.57;;;;;;;;;;4990759;28;25069;-72
2023/11/10 04:32:05;;;;;;;86.22;79.57;;;;;;;;;;4993120;28;25075;-72
2023/11/10 04:34:31;;;;;;;91.38;84.40;;;;;;;;;;4993493;28;25166;-73
2023/11/10 04:36:57;;;;;;;87.85;81.15;;;;;;;;;;4994566;28;25139;-73
2023/11/10 04:39:24;;;;;;;89.82;83.07;;;;;;;;;;4994451;28;25069;-73
2023/11/10 04:41:50;;;;;;;83.13;76.90;;;;;;;;;;5003770;28;25080;-71
2023/11/10 04:44:16;;;;;;;85.38;79.28;;;;;;;;;;5004383;28;25168;-72
2023/11/10 04:46:43;;;;;;;91.63;84.72;;;;;;;;;;5000177;28;25071;-72
2023/11/10 04:49:10;;;;;;;94.05;86.97;;;;;;;;;;5006510;28;25415;-73
2023/11/10 04:51:36;;;;;;;91.00;84.07;;;;;;;;;;4994000;28;25059;-73
2023/11/10 04:54:03;;;;;;;93.45;86.18;;;;;;;;;;4992833;28;25054;-73
2023/11/10 04:56:29;;;;;;;96.03;88.55;;;;;;;;;;4993309;28;25062;-73
2023/11/10 04:58:55;;;;;;;99.03;91.32;;;;;;;;;;4994820;28;25169;-72
2023/11/10 05:01:21;;;;;;;96.82;89.55;;;;;;;;;;4987433;28;25073;-74
2023/11/10 05:03:48;;;;;;;99.65;91.80;;;;;;;;;;5002300;28;25070;-72
2023/11/10 05:06:14;;;;;;;91.28;84.03;;;;;;;;;;4991285;28;25100;-72
2023/11/10 05:08:41;;;;;;;96.25;88.30;;;;;;;;;;4995206;28;25139;-73
2023/11/10 05:11:07;;;;;;;95.05;87.32;;;;;;;;;;4994902;28;25075;-72
2023/11/10 05:13:33;;;;;;;92.47;85.18;;;;;;;;;;5001378;28;25081;-73
2023/11/10 05:15:59;;;;;;;92.85;85.68;;;;;;;;;;4988922;28;25067;-72
2023/11/10 05:18:27;;;;;;;88.78;81.80;;;;;;;;;;4997653;28;25074;-75
2023/11/10 05:20:55;;;;;;;96.25;88.68;;;;;;;;;;4994520;28;25045;-72
2023/11/10 05:23:21;;;;;;;101.93;93.80;;;;;;;;;;4992018;28;25065;-72
2023/11/10 05:25:47;;;;;;;101.15;92.95;;;;;;;;;;4980740;28;25158;-73
2023/11/10 05:28:13;;;;;;;103.35;95.15;;;;;;;;;;4991664;28;25094;-73
2023/11/10 05:30:39;;;;;;;97.18;89.63;;;;;;;;;;4977524;28;25056;-71
2023/11/10 05:33:05;;;;;;;96.82;88.80;;;;;;;;;;4991755;28;25078;-72
2023/11/10 05:35:31;;;;;;;96.75;89.18;;;;;;;;;;4980066;28;25086;-74
2023/11/10 05:37:57;;;;;;;93.25;85.65;;;;;;;;;;4998837;28;25068;-74
2023/11/10 05:40:24;;;;;;;87.30;80.80;;;;;;;;;;4999008;28;25064;-72
2023/11/10 05:42:51;;;;;;;85.80;79.40;;;;;;;;;;4998656;28;25063;-72
2023/11/10 05:45:17;;;;;;;74.93;69.65;;;;;;;;;;4979251;28;25059;-74
2023/11/10 05:47:43;;;;;;;75.95;70.53;;;;;;;;;;4987040;28;25129;-74
2023/11/10 05:50:09;;;;;;;73.28;68.28;;;;;;;;;;4991518;28;25170;-71
2023/11/10 05:52:36;;;;;;;69.22;64.40;;;;;;;;;;4997181;28;25144;-73
2023/11/10 05:55:03;;;;;;;77.05;71.45;;;;;;;;;;5010544;28;25073;-72
2023/11/10 05:57:29;;;;;;;69.75;64.97;;;;;;;;;;5010210;28;25103;-72
2023/11/10 05:59:55;;;;;;;76.38;70.78;;;;;;;;;;5012674;28;25058;-72
2023/11/10 06:02:22;;;;;;;75.18;69.95;;;;;;;;;;5001187;28;25056;-73
2023/11/10 06:04:48;;;;;;;72.65;67.75;;;;;;;;;;4993131;28;25080;-71
2023/11/10 06:07:16;;;;;;;71.00;66.07;;;;;;;;;;5004649;28;25119;-72
2023/11/10 06:09:42;;;;;;;67.13;62.80;;;;;;;;;;5013539;28;25065;-72
2023/11/10 06:12:08;;;;;;;69.97;65.03;;;;;;;;;;5014911;28;25116;-72
2023/11/10 06:14:34;;;;;;;73.45;67.40;;;;;;;;;;5003992;28;25074;-72
2023/11/10 06:17:00;;;;;;;63.78;59.25;;;;;;;;;;4989027;28;25075;-73
2023/11/10 06:19:26;;;;;;;75.15;69.82;;;;;;;;;;4980725;28;25065;-74
2023/11/10 06:21:53;;;;;;;69.20;64.32;;;;;;;;;;4984887;28;25070;-73
2023/11/10 06:24:23;;;;;;;65.03;60.38;;;;;;;;;;5007765;28;25111;-73
2023/11/10 06:26:49;;;;;;;71.75;66.72;;;;;;;;;;5004849;28;25050;-72
2023/11/10 06:29:15;;;;;;;67.38;63.03;;;;;;;;;;5009748;28;25089;-73
2023/11/10 06:31:41;;;;;;;65.07;60.60;;;;;;;;;;5008308;28;25105;-71
2023/11/10 06:34:07;;;;;;;62.05;57.78;;;;;;;;;;5008933;28;25099;-72
2023/11/10 06:36:33;;;;;;;64.13;59.53;;;;;;;;;;4989633;28;25103;-72
2023/11/10 06:38:59;;;;;;;66.38;61.78;;;;;;;;;;4998640;28;25056;-72
2023/11/10 06:41:25;;;;;;;71.50;66.53;;;;;;;;;;4990556;28;25065;-71
2023/11/10 06:43:51;;;;;;;74.43;69.53;;;;;;;;;;4999945;28;25069;-73
2023/11/10 06:46:22;;;;;;;65.95;61.20;;;;;;;;;;5009173;28;25071;-69
2023/11/10 06:48:48;;;;;;;72.03;66.55;;;;;;;;;;5009078;28;25084;-72
2023/11/10 06:51:15;;;;;;;77.82;72.13;;;;;;;;;;4993282;28;25071;-72
2023/11/10 06:53:41;;;;;;;74.00;68.90;;;;;;;;;;4996141;28;25074;-72
2023/11/10 06:56:07;;;;;;;68.65;63.92;;;;;;;;;;4988246;28;25146;-73
2023/11/10 06:58:33;;;;;;;66.53;61.75;;;;;;;;;;4990086;28;25081;-71
2023/11/10 07:00:59;;;;;;;70.57;65.80;;;;;;;;;;4988093;28;25064;-73
2023/11/10 07:03:25;;;;;;;66.63;62.25;;;;;;;;;;4995626;28;25139;-71
2023/11/10 07:05:51;;;;;;;65.28;60.83;;;;;;;;;;4991728;28;25144;-72
2023/11/10 07:08:20;;;;;;;74.22;69.35;;;;;;;;;;4982627;28;25121;-73
2023/11/10 07:10:51;;;;;;;76.65;71.25;;;;;;;;;;4982940;28;25122;-72
2023/11/10 07:13:18;;;;;;;70.18;65.32;;;;;;;;;;4987891;28;25065;-74
2023/11/10 07:15:45;;;;;;;64.05;59.90;;;;;;;;;;4988260;28;25115;-73
2023/11/10 07:18:11;;;;;;;62.80;58.40;;;;;;;;;;4982516;28;25062;-73
2023/11/10 07:20:42;;;;;;;67.10;62.60;;;;;;;;;;4983885;28;25153;-73
2023/11/10 07:23:08;;;;;;;71.35;66.43;;;;;;;;;;4989891;28;25048;-72
2023/11/10 07:25:34;;;;;;;68.65;64.05;;;;;;;;;;4985524;28;25073;-72
2023/11/10 07:28:00;;;;;;;64.63;60.33;;;;;;;;;;4992679;28;25166;-73
2023/11/10 07:30:28;;;;;;;63.83;59.30;;;;;;;;;;4989448;28;25078;-72
2023/11/10 07:32:54;;;;;;;60.50;56.05;;;;;;;;;;4992627;28;25053;-73
2023/11/10 07:35:21;;;;;;;62.30;57.67;;;;;;;;;;4987177;28;25150;-75
2023/11/10 07:37:47;;;;;;;60.88;56.75;;;;;;;;;;4982640;28;25070;-73
2023/11/10 07:40:17;;;;;;;61.72;57.47;;;;;;;;;;4987559;28;25170;-73
2023/11/10 07:42:44;;;;;;;57.55;53.70;;;;;;;;;;5005007;28;25146;-72
2023/11/10 07:45:14;;;;;;;58.35;54.13;;;;;;;;;;5005094;28;24792;-72
2023/11/10 07:47:41;;;;;;;62.33;58.33;;;;;;;;;;5009164;28;25113;-72
2023/11/10 07:50:07;;;;;;;62.42;58.15;;;;;;;;;;5010501;28;25086;-72
2023/11/10 07:52:33;;;;;;;62.78;58.50;;;;;;;;;;5008698;28;25103;-72
2023/11/10 07:54:59;;;;;;;71.35;65.85;;;;;;;;;;5006842;28;25148;-71
2023/11/10 07:57:29;;;;;;;64.63;59.72;;;;;;;;;;5005160;28;25078;-73
2023/11/10 07:59:54;;;;;;;63.75;59.65;;;;;;;;;;5002221;28;25148;-73
2023/11/10 08:02:20;;;;;;;63.78;59.60;;;;;;;;;;5001474;28;25156;-71
2023/11/10 08:04:47;;;;;;;66.15;61.95;;;;;;;;;;5003485;28;25083;-72
2023/11/10 08:07:13;;;;;;;58.17;54.20;;;;;;;;;;5002259;28;25139;-71
2023/11/10 08:09:39;;;;;;;56.03;52.08;;;;;;;;;;4999534;28;25081;-72
2023/11/10 08:12:05;;;;;;;62.95;58.63;;;;;;;;;;5006074;28;25075;-73
2023/11/10 08:14:31;;;;;;;59.28;55.25;;;;;;;;;;5004968;28;25077;-73
2023/11/10 08:16:57;;;;;;;60.40;56.25;;;;;;;;;;5009216;28;25090;-71
2023/11/10 08:19:23;;;;;;;58.53;54.53;;;;;;;;;;5010876;28;25086;-71
2023/11/10 08:21:49;;;;;;;53.38;50.17;;;;;;;;;;5011004;28;25071;-71
2023/11/10 08:24:15;;;;;;;60.63;56.63;;;;;;;;;;5010444;28;25066;-72
2023/11/10 08:26:42;;;;;;;64.53;60.15;;;;;;;;;;5009598;28;25055;-72
2023/11/10 08:29:09;;;;;;;58.72;55.15;;;;;;;;;;5009178;28;25127;-74
2023/11/10 08:31:35;;;;;;;55.40;51.88;;;;;;;;;;5005001;28;25063;-71
2023/11/10 08:34:01;;;;;;;55.97;52.38;;;;;;;;;;5007715;28;25055;-73
2023/11/10 08:36:28;;;;;;;59.65;55.63;;;;;;;;;;5003171;28;25064;-72
2023/11/10 08:38:55;;;;;;;57.95;54.30;;;;;;;;;;5006125;28;25095;-72
2023/11/10 08:41:21;;;;;;;55.42;51.67;;;;;;;;;;5009400;28;25131;-71
2023/11/10 08:43:48;;;;;;;50.05;46.50;;;;;;;;;;5004705;28;25067;-73
2023/11/10 08:46:15;;;;;;;58.88;54.88;;;;;;;;;;5011597;28;25058;-73
2023/11/10 08:48:42;;;;;;;60.85;56.63;;;;;;;;;;5011841;28;25050;-72
2023/11/10 08:51:10;;;;;;;55.50;51.55;;;;;;;;;;5012260;28;25077;-71
2023/11/10 08:53:37;;;;;;;57.50;53.75;;;;;;;;;;5017107;28;25061;-71
2023/11/10 08:56:03;;;;;;;55.20;51.70;;;;;;;;;;5010847;28;25064;-73
2023/11/10 08:58:29;;;;;;;48.15;45.13;;;;;;;;;;5016528;28;25058;-71
2023/11/10 09:00:55;;;;;;;42.85;39.72;;;;;;;;;;5018691;28;25062;-72
2023/11/10 09:03:21;;;;;;;45.42;42.63;;;;;;;;;;5018213;28;25088;-71
2023/11/10 09:05:47;;;;;;;47.97;44.85;;;;;;;;;;5020176;28;25142;-72
2023/11/10 09:08:13;;;;;;;44.00;41.45;;;;;;;;;;5004161;28;25098;-71
2023/11/10 09:10:39;;;;;;;46.58;43.90;;;;;;;;;;5013743;28;25107;-74
2023/11/10 09:13:05;;;;;;;43.45;40.90;;;;;;;;;;5010668;28;25060;-73
2023/11/10 09:15:32;;;;;;;40.00;37.45;;;;;;;;;;5003829;28;25084;-71
2023/11/10 09:17:58;;;;;;;38.65;35.90;;;;;;;;;;5009901;28;25075;-71
2023/11/10 09:20:24;;;;;;;44.60;41.45;;;;;;;;;;5001754;28;25158;-73
2023/11/10 09:22:50;;;;;;;45.78;42.97;;;;;;;;;;5015243;28;25076;-71
2023/11/10 09:25:20;;;;;;;40.75;38.13;;;;;;;;;;5009102;28;25057;-70
2023/11/10 09:27:46;;;;;;;43.35;40.55;;;;;;;;;;5010333;28;25061;-72
2023/11/10 09:30:12;;;;;;;45.17;42.40;;;;;;;;;;5011850;28;25050;-71
2023/11/10 09:32:38;;;;;;;46.08;43.40;;;;;;;;;;5011934;28;25050;-72
2023/11/10 09:35:05;;;;;;;49.88;46.67;;;;;;;;;;5011735;28;25115;-72
2023/11/10 09:37:32;;;;;;;48.17;45.65;;;;;;;;;;5009040;28;25055;-71
2023/11/10 09:39:58;;;;;;;57.13;53.53;;;;;;;;;;5010324;28;25056;-72
2023/11/10 09:42:26;;;;;;;53.35;50.22;;;;;;;;;;5009551;28;25062;-73
2023/11/10 09:44:53;;;;;;;53.95;50.95;;;;;;;;;;5011142;28;24903;-72
2023/11/10 09:47:23;;;;;;;63.55;59.65;;;;;;;;;;5016587;28;25165;-71
2023/11/10 09:49:49;;;;;;;64.63;60.80;;;;;;;;;;5015254;28;25066;-71
2023/11/10 09:52:16;;;;;;;61.50;58.00;;;;;;;;;;5013288;28;25108;-70
2023/11/10 09:54:45;;;;;;;63.60;59.75;;;;;;;;;;5011986;28;25139;-72
2023/11/10 09:57:11;;;;;;;58.80;55.35;;;;;;;;;;5017410;28;25139;-72
2023/11/10 09:59:37;;;;;;;55.65;52.25;;;;;;;;;;5013451;28;25134;-73
2023/11/10 10:02:04;;;;;;;55.88;52.30;;;;;;;;;;5015825;28;25124;-73
2023/11/10 10:04:30;;;;;;;58.15;54.35;;;;;;;;;;5012055;28;25053;-71
2023/11/10 10:07:00;;;;;;;55.50;51.97;;;;;;;;;;5017246;28;25064;-72
2023/11/10 10:09:26;;;;;;;55.22;52.03;;;;;;;;;;5011857;28;25185;-71
2023/11/10 10:11:54;;;;;;;69.53;65.22;;;;;;;;;;5017663;28;25062;-71
2023/11/10 10:14:20;;;;;;;65.55;61.55;;;;;;;;;;5019705;28;25064;-72
2023/11/10 10:16:52;;;;;;;69.30;64.88;;;;;;;;;;5013074;28;25136;-71
2023/11/10 10:19:22;;;;;;;63.95;59.55;;;;;;;;;;5034437;28;25072;-72
2023/11/10 10:21:48;;;;;;;69.88;65.43;;;;;;;;;;5039807;28;25098;-73
2023/11/10 10:24:14;;;;;;;70.43;65.53;;;;;;;;;;5046103;28;25058;-71
2023/11/10 10:26:40;;;;;;;67.45;63.35;;;;;;;;;;5043326;28;25069;-74
2023/11/10 10:29:07;;;;;;;69.05;64.70;;;;;;;;;;5041674;28;25087;-73
2023/11/10 10:31:33;;;;;;;61.25;57.13;;;;;;;;;;5038997;28;25066;-73
2023/11/10 10:34:04;;;;;;;59.92;56.05;;;;;;;;;;5025895;28;25102;-71
2023/11/10 10:36:38;;;;;;;52.85;49.65;;;;;;;;;;5016395;28;25064;-72
2023/11/10 10:39:10;;;;;;;52.33;49.20;;;;;;;;;;5018428;28;25136;-72
2023/11/10 10:41:37;;;;;;;46.60;43.65;;;;;;;;;;5016387;28;25050;-72
2023/11/10 10:44:04;;;;;;;42.33;39.60;;;;;;;;;;5022632;28;25066;-72
2023/11/10 10:46:35;;;;;;;40.72;38.03;;;;;;;;;;5020544;28;25103;-73
2023/11/10 10:49:06;;;;;;;36.88;34.03;;;;;;;;;;5014687;28;25127;-72
2023/11/10 10:51:36;;;;;;;36.83;34.38;;;;;;;;;;5013250;28;25107;-72
2023/11/10 10:54:03;;;;;;;33.05;30.55;;;;;;;;;;5006638;28;25101;-71
2023/11/10 10:56:30;;;;;;;35.88;33.92;;;;;;;;;;5006501;28;25105;-72
2023/11/10 10:58:59;;;;;;;33.45;31.08;;;;;;;;;;5009694;28;25080;-72
2023/11/10 11:01:25;;;;;;;36.88;34.75;;;;;;;;;;5011715;28;25070;-73
2023/11/10 11:04:10;;;;;;;33.08;30.80;;;;;;;;;;5012794;28;25083;-72
2023/11/10 11:06:44;;;;;;;26.42;24.65;;;;;;;;;;5011823;28;25085;-72
2023/11/10 11:09:13;;;;;;;31.83;29.75;;;;;;;;;;5015805;28;25076;-73
2023/11/10 11:11:58;;;;;;;31.60;29.77;;;;;;;;;;5025559;28;25060;-70
2023/11/10 11:14:34;;;;;;;34.38;32.17;;;;;;;;;;5021249;28;26170;-71
2023/11/10 11:17:07;;;;;;;30.00;28.15;;;;;;;;;;5022293;28;25062;-71
2023/11/10 11:19:34;;;;;;;33.95;31.83;;;;;;;;;;5014892;28;25084;-72
2023/11/10 11:22:01;;;;;;;32.58;30.48;;;;;;;;;;5016023;28;25071;-70
2023/11/10 11:24:30;;;;;;;33.78;31.60;;;;;;;;;;5018236;28;25135;-70
2023/11/10 11:27:00;;;;;;;31.73;29.65;;;;;;;;;;5021927;28;25051;-72
2023/11/10 11:29:26;;;;;;;35.58;33.15;;;;;;;;;;5012350;28;25083;-72
2023/11/10 11:31:52;;;;;;;34.92;32.72;;;;;;;;;;5016812;28;25144;-71
2023/11/10 11:34:19;;;;;;;42.40;39.55;;;;;;;;;;5016718;28;25086;-73
2023/11/10 11:36:45;;;;;;;44.75;41.97;;;;;;;;;;5017219;28;25078;-70
2023/11/10 11:39:15;;;;;;;37.00;34.80;;;;;;;;;;4995751;28;25053;-70
2023/11/10 11:41:46;;;;;;;35.03;33.20;;;;;;;;;;5006050;28;25087;-72
2023/11/10 11:44:12;;;;;;;37.30;34.88;;;;;;;;;;5006952;28;25072;-71
2023/11/10 11:46:39;;;;;;;38.85;36.40;;;;;;;;;;5010006;28;25091;-70
2023/11/10 11:49:06;;;;;;;45.08;42.50;;;;;;;;;;5009578;28;25065;-71
2023/11/10 11:51:33;;;;;;;46.72;44.03;;;;;;;;;;4993161;28;25080;-73
2023/11/10 11:54:00;;;;;;;64.82;61.03;;;;;;;;;;5008226;28;25059;-73
2023/11/10 11:56:27;;;;;;;68.50;63.72;;;;;;;;;;5017955;28;25060;-70
2023/11/10 11:58:53;;;;;;;71.53;66.25;;;;;;;;;;5006790;28;25068;-71
2023/11/10 12:01:19;;;;;;;75.07;70.22;;;;;;;;;;4995978;28;25074;-72
2023/11/10 12:03:46;;;;;;;87.93;82.05;;;;;;;;;;5004193;28;25068;-72
2023/11/10 12:06:11;;;;;;;82.75;77.43;;;;;;;;;;5003467;28;25074;-73
2023/11/10 12:08:37;;;;;;;110.28;102.07;;;;;;;;;;4996946;28;25154;-73
2023/11/10 12:11:05;;;;;;;118.22;109.28;;;;;;;;;;4992938;28;25088;-72
2023/11/10 12:13:33;;;;;;;129.18;119.53;;;;;;;;;;4999393;28;25138;-73
2023/11/10 12:15:59;;;;;;;124.65;114.82;;;;;;;;;;4987895;28;25167;-72
2023/11/10 12:18:26;;;;;;;128.30;117.93;;;;;;;;;;4992528;28;25111;-73
2023/11/10 12:20:53;;;;;;;137.40;126.18;;;;;;;;;;4995810;28;25077;-71
2023/11/10 12:23:19;;;;;;;138.52;127.10;;;;;;;;;;4994712;28;25146;-72
2023/11/10 12:25:45;;;;;;;137.38;126.03;;;;;;;;;;4986600;28;25052;-73
2023/11/10 12:28:12;;;;;;;136.68;125.57;;;;;;;;;;4986328;28;25146;-73
2023/11/10 12:30:38;;;;;;;121.78;111.78;;;;;;;;;;4987384;28;25111;-73
2023/11/10 12:33:04;;;;;;;112.15;103.25;;;;;;;;;;5001305;28;25162;-73
2023/11/10 12:35:30;;;;;;;110.35;101.55;;;;;;;;;;4989544;28;25133;-74
2023/11/10 12:37:56;;;;;;;109.68;101.05;;;;;;;;;;4988009;28;25136;-74
2023/11/10 12:40:24;;;;;;;115.28;105.85;;;;;;;;;;4989758;28;25056;-74
2023/11/10 12:42:50;;;;;;;129.63;118.93;;;;;;;;;;4992308;28;25052;-73
2023/11/10 12:45:16;;;;;;;123.93;113.78;;;;;;;;;;4986458;28;25053;-74
2023/11/10 12:47:48;;;;;;;129.88;119.10;;;;;;;;;;4992210;28;25066;-74
2023/11/10 12:50:15;;;;;;;130.55;120.05;;;;;;;;;;4988344;28;25106;-75
2023/11/10 12:52:42;;;;;;;132.10;121.30;;;;;;;;;;4986627;28;25095;-74
2023/11/10 12:55:08;;;;;;;136.77;124.90;;;;;;;;;;4987578;28;25069;-74
2023/11/10 12:57:35;;;;;;;134.10;122.88;;;;;;;;;;4988862;28;25067;-74
2023/11/10 13:00:12;;;;;;;137.88;126.45;;;;;;;;;;4989040;28;25127;-73
2023/11/10 13:02:39;;;;;;;134.43;123.28;;;;;;;;;;4989617;28;25057;-73
2023/11/10 13:05:05;;;;;;;137.30;126.07;;;;;;;;;;4982616;28;25046;-73
2023/11/10 13:07:32;;;;;;;130.25;119.35;;;;;;;;;;4990650;28;25199;-73
2023/11/10 13:09:58;;;;;;;136.48;125.53;;;;;;;;;;4991352;28;25080;-73
2023/11/10 13:12:24;;;;;;;132.85;121.75;;;;;;;;;;4984956;28;25075;-72
2023/11/10 13:14:51;;;;;;;132.88;122.20;;;;;;;;;;4985696;28;25099;-74
2023/11/10 13:17:18;;;;;;;128.93;118.53;;;;;;;;;;4985777;28;25079;-72
2023/11/10 13:19:44;;;;;;;132.35;121.85;;;;;;;;;;4987436;28;25121;-73
2023/11/10 13:22:14;;;;;;;134.52;123.47;;;;;;;;;;4993179;28;25086;-71
2023/11/10 13:24:40;;;;;;;132.32;121.65;;;;;;;;;;4992881;28;25058;-74
2023/11/10 13:27:06;;;;;;;125.82;115.68;;;;;;;;;;4982569;28;25074;-74
2023/11/10 13:29:32;;;;;;;134.02;123.25;;;;;;;;;;4984336;28;25134;-72
2023/11/10 13:31:59;;;;;;;126.00;115.90;;;;;;;;;;4985173;28;25064;-73
2023/11/10 13:34:26;;;;;;;127.38;117.07;;;;;;;;;;4984018;28;25079;-72
2023/11/10 13:36:53;;;;;;;125.45;115.63;;;;;;;;;;4932301;28;1486288;-72
2023/11/10 13:39:19;;;;;;;123.78;113.45;;;;;;;;;;5003330;28;25063;-73
2023/11/10 13:41:45;;;;;;;117.82;108.47;;;;;;;;;;5003202;28;25053;-73
2023/11/10 13:44:11;;;;;;;119.22;109.95;;;;;;;;;;5002446;28;25072;-73
2023/11/10 13:46:37;;;;;;;118.88;109.57;;;;;;;;;;5001032;28;25122;-73
2023/11/10 13:49:04;;;;;;;109.13;100.63;;;;;;;;;;4982357;28;25068;-72
2023/11/10 13:51:30;;;;;;;116.60;107.57;;;;;;;;;;4975442;28;25066;-73
2023/11/10 13:53:56;;;;;;;113.50;104.72;;;;;;;;;;4976745;28;25132;-73
2023/11/10 13:56:22;;;;;;;105.78;97.57;;;;;;;;;;4986832;28;25085;-74
2023/11/10 13:58:48;;;;;;;110.28;101.63;;;;;;;;;;4982478;28;25075;-71
2023/11/10 14:01:15;;;;;;;117.22;107.43;;;;;;;;;;4993756;28;25056;-74
2023/11/10 14:03:41;;;;;;;120.38;111.07;;;;;;;;;;4986408;28;25082;-71
2023/11/10 14:06:09;;;;;;;120.97;110.90;;;;;;;;;;4990570;28;25064;-73
2023/11/10 14:08:38;;;;;;;115.50;106.50;;;;;;;;;;4988878;28;25100;-75
2023/11/10 14:11:05;;;;;;;118.82;109.47;;;;;;;;;;4993301;28;25083;-73